createdAt,value
2019-05-02T00:01:58.236Z,59.07
2019-05-02T00:04:25.778Z,58.70
2019-05-02T00:07:06.786Z,54.53
2019-05-02T00:09:53.755Z,58.13
2019-05-02T00:12:21.492Z,57.30
2019-05-02T00:14:49.136Z,63.43
2019-05-02T00:17:20.463Z,59.00
2019-05-02T00:19:49.834Z,57.60
2019-05-02T00:22:18.441Z,56.43
2019-05-02T00:24:46.716Z,57.90
2019-05-02T00:27:14.259Z,56.93
2019-05-02T00:29:41.770Z,53.17
2019-05-02T00:32:09.265Z,55.13
2019-05-02T00:34:36.808Z,57.57
2019-05-02T00:37:07.677Z,56.37
2019-05-02T00:39:35.191Z,57.03
2019-05-02T00:42:12.327Z,56.20
2019-05-02T00:44:32.205Z,56.07
2019-05-02T00:47:10.893Z,57.23
2019-05-02T00:49:36.694Z,56.20
2019-05-02T00:52:04.323Z,52.57
2019-05-02T00:54:31.873Z,55.00
2019-05-02T00:56:59.378Z,58.80
2019-05-02T00:59:28.025Z,57.37
2019-05-02T01:02:20.347Z,61.17
2019-05-02T01:04:48.165Z,58.90
2019-05-02T01:07:15.694Z,60.23
2019-05-02T01:09:46.837Z,64.70
2019-05-02T01:12:25.154Z,64.97
2019-05-02T01:14:41.779Z,62.27
2019-05-02T01:17:12.225Z,59.30
2019-05-02T01:19:39.694Z,63.83
2019-05-02T01:22:10.562Z,61.83
2019-05-02T01:24:39.957Z,59.67
2019-05-02T01:27:14.794Z,62.17
2019-05-02T01:30:01.703Z,62.20
2019-05-02T01:32:33.653Z,66.07
2019-05-02T01:35:09.051Z,62.57
2019-05-02T01:38:14.299Z,70.93
2019-05-02T01:40:42.529Z,69.33
2019-05-02T01:43:29.937Z,65.53
2019-05-02T01:46:02.633Z,67.73
2019-05-02T01:48:30.041Z,67.40
2019-05-02T01:50:57.909Z,63.70
2019-05-02T01:53:29.453Z,74.73
2019-05-02T01:55:57.574Z,66.37
2019-05-02T01:58:26.648Z,63.80
2019-05-02T02:00:54.335Z,65.70
2019-05-02T02:03:21.950Z,65.77
2019-05-02T02:05:49.474Z,69.80
2019-05-02T02:08:17.903Z,62.30
2019-05-02T02:10:50.467Z,65.90
2019-05-02T02:13:20.064Z,68.40
2019-05-02T02:15:47.761Z,66.60
2019-05-02T02:18:16.322Z,59.90
2019-05-02T02:21:27.618Z,62.40
2019-05-02T02:24:03.022Z,68.83
2019-05-02T02:26:30.657Z,60.87
2019-05-02T02:28:58.244Z,65.23
2019-05-02T02:31:25.769Z,64.13
2019-05-02T02:33:54.278Z,63.93
2019-05-02T02:36:31.669Z,65.30
2019-05-02T02:38:51.114Z,73.73
2019-05-02T02:41:21.675Z,71.77
2019-05-02T02:44:07.661Z,69.60
2019-05-02T02:46:37.918Z,61.93
2019-05-02T02:49:05.521Z,64.73
2019-05-02T02:51:33.131Z,69.60
2019-05-02T02:54:03.778Z,67.17
2019-05-02T02:56:34.375Z,65.50
2019-05-02T02:59:02.010Z,71.97
2019-05-02T03:01:31.252Z,76.10
2019-05-02T03:04:02.154Z,67.87
2019-05-02T03:06:38.309Z,62.20
2019-05-02T03:09:05.499Z,67.37
2019-05-02T03:11:41.013Z,64.67
2019-05-02T03:14:18.108Z,78.43
2019-05-02T03:16:47.201Z,71.30
2019-05-02T03:19:20.916Z,66.60
2019-05-02T03:21:54.219Z,67.27
2019-05-02T03:24:25.030Z,68.60
2019-05-02T03:26:55.417Z,63.03
2019-05-02T03:29:41.122Z,62.70
2019-05-02T03:32:16.114Z,61.77
2019-05-02T03:34:52.518Z,63.43
2019-05-02T03:37:13.940Z,63.77
2019-05-02T03:39:49.570Z,64.03
2019-05-02T03:42:13.468Z,67.47
2019-05-02T03:44:41.140Z,60.53
2019-05-02T03:47:09.972Z,63.00
2019-05-02T03:49:40.872Z,66.43
2019-05-02T03:52:11.221Z,64.87
2019-05-02T03:54:48.623Z,64.57
2019-05-02T03:57:08.702Z,59.00
2019-05-02T03:59:39.381Z,62.50
2019-05-02T04:02:05.499Z,61.53
2019-05-02T04:04:36.158Z,70.37
2019-05-02T04:07:03.662Z,65.20
2019-05-02T04:09:38.766Z,66.03
2019-05-02T04:12:05.049Z,69.57
2019-05-02T04:14:37.996Z,75.83
2019-05-02T04:17:04.999Z,69.70
2019-05-02T04:19:35.056Z,70.40
2019-05-02T04:22:08.996Z,72.70
2019-05-02T04:24:32.052Z,70.73
2019-05-02T04:27:00.263Z,71.63
2019-05-02T04:29:31.216Z,61.33
2019-05-02T04:31:57.094Z,64.63
2019-05-02T04:34:24.603Z,75.53
2019-05-02T04:37:01.134Z,62.90
2019-05-02T04:39:23.152Z,72.47
2019-05-02T04:41:50.676Z,67.10
2019-05-02T04:44:18.991Z,70.33
2019-05-02T04:46:48.914Z,67.17
2019-05-02T04:49:22.164Z,72.33
2019-05-02T04:51:59.903Z,73.73
2019-05-02T04:54:25.898Z,65.90
2019-05-02T04:56:53.431Z,75.83
2019-05-02T04:59:22.773Z,76.50
2019-05-02T05:01:52.918Z,77.47
2019-05-02T05:04:17.765Z,75.13
2019-05-02T05:07:00.241Z,77.77
2019-05-02T05:09:24.893Z,85.77
2019-05-02T05:11:53.818Z,78.97
2019-05-02T05:14:22.694Z,83.50
2019-05-02T05:16:53.865Z,80.80
2019-05-02T05:19:23.118Z,84.97
2019-05-02T05:21:58.845Z,89.80
2019-05-02T05:24:40.626Z,95.77
2019-05-02T05:27:04.314Z,87.43
2019-05-02T05:29:34.047Z,92.27
2019-05-02T05:32:05.646Z,96.00
2019-05-02T05:34:32.786Z,93.03
2019-05-02T05:37:03.761Z,106.67
2019-05-02T05:39:29.727Z,109.83
2019-05-02T05:41:57.847Z,107.97
2019-05-02T05:44:28.642Z,110.77
2019-05-02T05:46:54.969Z,113.97
2019-05-02T05:49:22.517Z,114.97
2019-05-02T05:51:54.439Z,117.10
2019-05-02T05:54:19.407Z,115.67
2019-05-02T05:56:48.091Z,117.33
2019-05-02T05:59:17.500Z,118.53
2019-05-02T06:01:47.825Z,115.87
2019-05-02T06:04:19.451Z,107.30
2019-05-02T06:06:44.689Z,116.97
2019-05-02T06:09:13.850Z,104.67
2019-05-02T06:11:41.676Z,111.53
2019-05-02T06:14:09.238Z,112.23
2019-05-02T06:16:36.791Z,106.80
2019-05-02T06:19:04.324Z,107.77
2019-05-02T06:21:31.889Z,116.87
2019-05-02T06:23:59.442Z,113.57
2019-05-02T06:26:26.974Z,106.37
2019-05-02T06:28:54.448Z,111.13
2019-05-02T06:31:21.937Z,105.90
2019-05-02T06:33:49.456Z,111.43
2019-05-02T06:36:17.045Z,108.00
2019-05-02T06:39:05.228Z,105.57
2019-05-02T06:41:32.816Z,110.70
2019-05-02T06:44:02.622Z,101.10
2019-05-02T06:46:31.246Z,107.87
2019-05-02T06:48:58.770Z,110.80
2019-05-02T06:51:26.571Z,101.77
2019-05-02T06:53:54.290Z,108.43
2019-05-02T06:56:21.974Z,99.63
2019-05-02T06:58:49.525Z,102.13
2019-05-02T07:01:21.134Z,100.13
2019-05-02T07:03:47.590Z,93.47
2019-05-02T07:06:15.256Z,94.83
2019-05-02T07:08:42.802Z,94.10
2019-05-02T07:11:10.546Z,93.13
2019-05-02T07:13:41.995Z,98.07
2019-05-02T07:16:37.780Z,91.70
2019-05-02T07:19:00.034Z,96.33
2019-05-02T07:21:27.578Z,97.67
2019-05-02T07:23:56.042Z,79.97
2019-05-02T07:26:23.600Z,84.70
2019-05-02T07:28:51.255Z,83.90
2019-05-02T07:31:18.986Z,80.87
2019-05-02T07:33:46.483Z,78.53
2019-05-02T07:36:14.038Z,88.40
2019-05-02T07:38:41.538Z,83.00
2019-05-02T07:41:09.105Z,80.20
2019-05-02T07:43:38.981Z,82.70
2019-05-02T07:46:06.430Z,85.93
2019-05-02T07:48:36.443Z,85.80
2019-05-02T07:51:03.965Z,81.53
2019-05-02T07:53:31.504Z,73.30
2019-05-02T07:55:59.014Z,71.30
2019-05-02T07:58:26.632Z,72.53
2019-05-02T08:00:54.188Z,70.17
2019-05-02T08:03:21.774Z,70.40
2019-05-02T08:05:54.513Z,67.17
2019-05-02T08:08:25.011Z,65.23
2019-05-02T08:10:53.849Z,65.37
2019-05-02T08:13:21.851Z,67.77
2019-05-02T08:15:50.744Z,66.70
2019-05-02T08:18:18.847Z,67.87
2019-05-02T08:20:46.361Z,67.43
2019-05-02T08:23:13.995Z,75.97
2019-05-02T08:25:45.443Z,72.20
2019-05-02T08:28:19.031Z,70.83
2019-05-02T08:30:51.629Z,65.57
2019-05-02T08:33:19.231Z,64.53
2019-05-02T08:35:46.791Z,69.80
2019-05-02T08:38:17.878Z,62.77
2019-05-02T08:40:47.885Z,69.33
2019-05-02T08:43:15.558Z,66.63
2019-05-02T08:45:46.334Z,65.40
2019-05-02T08:48:13.902Z,65.40
2019-05-02T08:50:42.887Z,67.43
2019-05-02T08:53:14.349Z,72.30
2019-05-02T08:55:41.402Z,74.20
2019-05-02T08:58:14.600Z,69.53
2019-05-02T09:00:39.566Z,67.13
2019-05-02T09:03:07.681Z,71.53
2019-05-02T09:05:36.996Z,67.10
2019-05-02T09:08:09.022Z,66.23
2019-05-02T09:10:37.026Z,70.27
2019-05-02T09:13:03.497Z,63.13
2019-05-02T09:15:31.738Z,61.63
2019-05-02T09:18:21.795Z,67.90
2019-05-02T09:20:52.599Z,62.03
2019-05-02T09:23:18.675Z,59.07
2019-05-02T09:25:46.268Z,61.27
2019-05-02T09:28:17.138Z,62.90
2019-05-02T09:30:43.217Z,67.30
2019-05-02T09:33:11.716Z,66.67
2019-05-02T09:35:39.548Z,64.23
2019-05-02T09:38:07.014Z,62.73
2019-05-02T09:40:34.891Z,65.20
2019-05-02T09:43:04.711Z,70.37
2019-05-02T09:45:37.215Z,62.47
2019-05-02T09:48:07.159Z,65.73
2019-05-02T09:50:34.395Z,70.60
2019-05-02T09:53:01.997Z,70.80
2019-05-02T09:55:31.828Z,78.67
2019-05-02T09:57:59.573Z,81.17
2019-05-02T10:00:42.434Z,80.07
2019-05-02T10:03:11.954Z,78.50
2019-05-02T10:05:39.563Z,78.07
2019-05-02T10:08:10.771Z,77.27
2019-05-02T10:10:37.289Z,82.97
2019-05-02T10:13:06.414Z,84.30
2019-05-02T10:15:34.132Z,89.97
2019-05-02T10:18:10.622Z,86.53
2019-05-02T10:20:36.130Z,88.93
2019-05-02T10:23:02.261Z,94.60
2019-05-02T10:25:30.742Z,95.27
2019-05-02T10:27:59.342Z,97.43
2019-05-02T10:30:33.663Z,95.77
2019-05-02T10:33:19.746Z,89.43
2019-05-02T10:35:48.690Z,92.67
2019-05-02T10:38:19.339Z,90.07
2019-05-02T10:40:48.316Z,92.90
2019-05-02T10:43:15.177Z,94.77
2019-05-02T10:45:47.413Z,91.03
2019-05-02T10:48:24.927Z,88.57
2019-05-02T10:50:48.910Z,87.67
2019-05-02T10:53:16.328Z,85.90
2019-05-02T10:55:44.505Z,74.80
2019-05-02T10:58:12.466Z,80.10
2019-05-02T11:00:44.888Z,83.90
2019-05-02T11:03:37.894Z,74.57
2019-05-02T11:06:07.470Z,79.60
2019-05-02T11:08:36.806Z,81.03
2019-05-02T11:11:05.919Z,79.63
2019-05-02T11:14:05.581Z,74.80
2019-05-02T11:16:53.426Z,73.77
2019-05-02T11:19:42.288Z,83.67
2019-05-02T11:22:12.001Z,74.57
2019-05-02T11:24:39.458Z,73.63
2019-05-02T11:27:08.281Z,75.70
2019-05-02T11:29:36.060Z,69.03
2019-05-02T11:32:23.211Z,78.57
2019-05-02T11:34:52.381Z,68.27
2019-05-02T11:37:20.012Z,72.17
2019-05-02T11:39:52.649Z,78.00
2019-05-02T11:42:20.722Z,69.63
2019-05-02T11:44:46.457Z,70.27
2019-05-02T11:47:22.710Z,73.33
2019-05-02T11:49:53.920Z,68.50
2019-05-02T11:52:17.098Z,75.37
2019-05-02T11:54:48.332Z,71.50
2019-05-02T11:57:28.504Z,74.00
2019-05-02T11:59:59.384Z,73.07
2019-05-02T12:02:58.371Z,75.70
2019-05-02T12:05:35.546Z,71.97
2019-05-02T12:08:07.553Z,64.77
2019-05-02T12:10:33.008Z,70.27
2019-05-02T12:13:02.155Z,50.37
2019-05-02T12:15:29.930Z,53.93
2019-05-02T12:18:20.553Z,50.70
2019-05-02T12:20:53.252Z,50.00
2019-05-02T12:23:22.681Z,47.07
2019-05-02T12:26:03.705Z,47.23
2019-05-02T12:28:32.366Z,49.10
2019-05-02T12:31:00.184Z,51.23
2019-05-02T12:33:31.878Z,51.37
2019-05-02T12:36:12.024Z,52.07
2019-05-02T12:38:41.989Z,48.20
2019-05-02T12:41:19.526Z,50.23
2019-05-02T12:43:38.859Z,49.20
2019-05-02T12:46:06.447Z,46.90
2019-05-02T12:48:34.204Z,44.00
2019-05-02T12:51:02.046Z,46.63
2019-05-02T12:53:29.968Z,43.30
2019-05-02T12:55:57.608Z,37.27
2019-05-02T12:58:25.269Z,36.30
2019-05-02T13:00:53.237Z,37.10
2019-05-02T13:03:55.921Z,38.30
2019-05-02T13:07:02.066Z,35.57
2019-05-02T13:09:29.755Z,38.47
2019-05-02T13:12:14.212Z,37.43
2019-05-02T13:14:42.413Z,41.47
2019-05-02T13:17:12.235Z,34.00
2019-05-02T13:19:43.823Z,32.40
2019-05-02T13:22:27.787Z,26.60
2019-05-02T13:25:06.009Z,28.23
2019-05-02T13:27:58.785Z,26.80
2019-05-02T13:30:42.681Z,25.63
2019-05-02T13:33:06.510Z,24.67
2019-05-02T13:35:42.142Z,25.53
2019-05-02T13:38:13.042Z,22.40
2019-05-02T13:40:45.965Z,23.27
2019-05-02T13:43:13.779Z,23.80
2019-05-02T13:46:04.629Z,23.00
2019-05-02T13:48:32.537Z,21.13
2019-05-02T13:51:03.977Z,21.50
2019-05-02T13:53:32.372Z,20.37
2019-05-02T13:56:47.529Z,19.33
2019-05-02T13:59:15.459Z,18.80
2019-05-02T14:01:44.257Z,19.23
2019-05-02T14:04:14.954Z,16.27
2019-05-02T14:06:42.104Z,18.10
2019-05-02T14:09:37.165Z,19.07
2019-05-02T14:12:36.172Z,19.20
2019-05-02T14:15:04.621Z,17.33
2019-05-02T14:17:37.521Z,17.73
2019-05-02T14:20:10.753Z,17.43
2019-05-02T14:22:34.851Z,17.67
2019-05-02T14:25:02.609Z,15.67
2019-05-02T14:27:33.753Z,15.50
2019-05-02T14:30:02.417Z,17.33
2019-05-02T14:32:32.888Z,16.57
2019-05-02T14:35:11.824Z,15.83
2019-05-02T14:37:42.497Z,17.90
2019-05-02T14:40:19.919Z,17.47
2019-05-02T14:42:47.599Z,17.53
2019-05-02T14:45:27.181Z,16.73
2019-05-02T14:47:49.704Z,17.03
2019-05-02T14:50:23.549Z,15.73
2019-05-02T14:52:45.897Z,16.37
2019-05-02T14:55:17.080Z,17.17
2019-05-02T14:57:46.546Z,16.50
2019-05-02T15:00:17.001Z,16.73
2019-05-02T15:02:49.019Z,15.73
2019-05-02T15:05:14.035Z,16.87
2019-05-02T15:07:56.782Z,15.90
2019-05-02T15:10:24.705Z,17.80
2019-05-02T15:12:59.757Z,17.37
2019-05-02T15:15:23.241Z,17.03
2019-05-02T15:17:52.943Z,15.93
2019-05-02T15:20:22.290Z,18.17
2019-05-02T15:22:52.536Z,19.10
2019-05-02T15:25:21.797Z,18.90
2019-05-02T15:31:34.219Z,18.93
2019-05-02T15:34:17.452Z,17.50
2019-05-02T15:36:52.647Z,15.17
2019-05-02T15:41:52.415Z,18.07
2019-05-02T15:44:31.755Z,18.30
2019-05-02T15:47:06.782Z,18.83
2019-05-02T15:49:45.043Z,20.53
2019-05-02T15:52:18.997Z,18.67
2019-05-02T15:54:44.405Z,17.67
2019-05-02T15:57:19.543Z,16.83
2019-05-02T15:59:46.316Z,18.70
2019-05-02T16:02:22.976Z,19.20
2019-05-02T16:04:48.110Z,19.67
2019-05-02T16:07:17.118Z,19.27
2019-05-02T16:09:51.559Z,22.30
2019-05-02T16:12:18.424Z,20.53
2019-05-02T16:14:45.943Z,21.27
2019-05-02T16:17:29.494Z,18.97
2019-05-02T16:20:09.453Z,23.10
2019-05-02T16:22:31.570Z,24.10
2019-05-02T16:24:59.202Z,25.90
2019-05-02T16:27:48.887Z,25.03
2019-05-02T16:30:22.802Z,31.20
2019-05-02T16:32:57.879Z,34.33
2019-05-02T16:35:28.445Z,39.20
2019-05-02T16:37:57.287Z,37.40
2019-05-02T16:40:29.774Z,36.73
2019-05-02T16:42:54.765Z,36.80
2019-05-02T16:45:27.499Z,38.27
2019-05-02T16:48:03.045Z,37.13
2019-05-02T16:50:35.159Z,37.13
2019-05-02T16:52:59.570Z,33.50
2019-05-02T16:55:27.167Z,35.80
2019-05-02T16:57:56.618Z,35.57
2019-05-02T17:00:25.184Z,34.50
2019-05-02T17:02:52.730Z,35.47
2019-05-02T17:05:21.961Z,36.10
2019-05-02T17:07:56.407Z,36.47
2019-05-02T17:10:27.875Z,38.17
2019-05-02T17:12:57.054Z,35.60
2019-05-02T17:15:35.187Z,37.27
2019-05-02T17:18:04.884Z,36.67
2019-05-02T17:20:31.971Z,34.03
2019-05-02T17:23:03.328Z,33.63
2019-05-02T17:25:29.023Z,35.07
2019-05-02T17:28:02.417Z,35.40
2019-05-02T17:30:33.677Z,35.57
2019-05-02T17:32:58.730Z,33.83
2019-05-02T17:35:28.903Z,32.30
2019-05-02T17:37:56.413Z,31.73
2019-05-02T17:40:26.101Z,31.53
2019-05-02T17:42:57.208Z,26.80
2019-05-02T17:45:25.788Z,24.97
2019-05-02T17:47:53.354Z,23.60
2019-05-02T17:50:54.902Z,24.37
2019-05-02T17:53:19.252Z,21.97
2019-05-02T17:55:46.862Z,22.00
2019-05-02T17:58:16.558Z,21.97
2019-05-02T18:00:47.514Z,20.97
2019-05-02T18:03:16.705Z,19.47
2019-05-02T18:05:46.827Z,20.47
2019-05-02T18:08:14.829Z,20.27
2019-05-02T18:10:42.727Z,21.93
2019-05-02T18:13:12.040Z,18.00
2019-05-02T18:15:41.504Z,17.30
2019-05-02T18:18:09.096Z,28.37
2019-05-02T18:20:37.082Z,27.47
2019-05-02T18:23:06.140Z,18.77
2019-05-02T18:25:34.611Z,21.27
2019-05-02T18:28:04.591Z,23.53
2019-05-02T18:30:33.106Z,19.70
2019-05-02T18:33:07.090Z,18.50
2019-05-02T18:35:37.326Z,17.17
2019-05-02T18:38:02.709Z,14.93
2019-05-02T18:40:32.075Z,14.43
2019-05-02T18:43:02.234Z,13.00
2019-05-02T18:45:29.178Z,12.37
2019-05-02T18:48:02.254Z,14.30
2019-05-02T18:50:37.021Z,13.10
2019-05-02T18:53:05.980Z,14.03
2019-05-02T18:55:38.090Z,14.03
2019-05-02T18:58:12.784Z,12.50
2019-05-02T19:00:44.004Z,12.23
2019-05-02T19:03:15.722Z,13.70
2019-05-02T19:05:42.183Z,13.37
2019-05-02T19:08:11.960Z,15.33
2019-05-02T19:10:42.484Z,17.37
2019-05-02T19:13:08.771Z,18.87
2019-05-02T19:15:39.697Z,16.47
2019-05-02T19:18:10.711Z,15.53
2019-05-02T19:21:06.897Z,13.00
2019-05-02T19:23:35.311Z,13.47
2019-05-02T19:26:09.975Z,12.43
2019-05-02T19:28:54.275Z,12.67
2019-05-02T19:31:24.041Z,13.37
2019-05-02T19:33:52.731Z,15.23
2019-05-02T19:36:24.495Z,16.57
2019-05-02T19:38:49.818Z,16.60
2019-05-02T19:41:17.698Z,15.53
2019-05-02T19:43:49.876Z,17.20
2019-05-02T19:46:31.278Z,15.30
2019-05-02T19:48:52.814Z,15.67
2019-05-02T19:51:22.436Z,16.57
2019-05-02T19:53:53.491Z,14.43
2019-05-02T19:56:19.097Z,16.07
2019-05-02T19:58:46.907Z,16.70
2019-05-02T20:01:21.946Z,16.03
2019-05-02T20:04:15.323Z,15.93
2019-05-02T20:06:43.030Z,18.37
2019-05-02T20:09:11.166Z,15.93
2019-05-02T20:11:38.774Z,14.90
2019-05-02T20:14:09.519Z,12.57
2019-05-02T20:16:45.826Z,16.53
2019-05-02T20:19:17.260Z,14.97
2019-05-02T20:22:17.846Z,15.67
2019-05-02T20:25:00.693Z,13.30
2019-05-02T20:27:28.692Z,15.60
2019-05-02T20:29:56.680Z,17.67
2019-05-02T20:32:24.436Z,14.83
2019-05-02T20:34:52.143Z,15.67
2019-05-02T20:37:26.514Z,14.03
2019-05-02T20:39:54.112Z,15.93
2019-05-02T20:42:21.793Z,12.23
2019-05-02T20:44:52.654Z,15.20
2019-05-02T20:47:23.731Z,13.87
2019-05-02T20:49:51.951Z,13.50
2019-05-02T20:52:21.708Z,10.47
2019-05-02T20:54:49.595Z,12.27
2019-05-02T20:57:21.490Z,12.03
2019-05-02T20:59:49.432Z,10.97
2019-05-02T21:02:17.164Z,10.33
2019-05-02T21:04:45.221Z,10.50
2019-05-02T21:07:23.044Z,12.03
2019-05-02T21:10:18.389Z,10.13
2019-05-02T21:12:45.988Z,12.23
2019-05-02T21:15:13.626Z,10.10
2019-05-02T21:17:44.282Z,9.80
2019-05-02T21:20:12.536Z,12.23
2019-05-02T21:22:42.053Z,13.37
2019-05-02T21:25:09.579Z,14.77
2019-05-02T21:27:39.331Z,12.80
2019-05-02T21:30:07.867Z,10.70
2019-05-02T21:32:35.656Z,15.03
2019-05-02T21:35:04.525Z,11.60
2019-05-02T21:37:42.334Z,14.00
2019-05-02T21:40:11.841Z,12.03
2019-05-02T21:42:39.601Z,12.07
2019-05-02T21:45:08.762Z,12.20
2019-05-02T21:47:36.410Z,10.17
2019-05-02T21:50:12.222Z,12.23
2019-05-02T21:52:47.182Z,13.17
2019-05-02T21:55:40.343Z,14.47
2019-05-02T21:58:08.017Z,13.80
2019-05-02T22:01:02.028Z,15.47
2019-05-02T22:03:29.964Z,15.77
2019-05-02T22:05:57.588Z,13.87
2019-05-02T22:08:25.180Z,12.33
2019-05-02T22:10:52.798Z,10.77
2019-05-02T22:13:22.221Z,15.43
2019-05-02T22:15:52.997Z,12.97
2019-05-02T22:18:21.644Z,11.57
2019-05-02T22:20:49.364Z,14.07
2019-05-02T22:23:17.177Z,11.67
2019-05-02T22:25:44.788Z,13.20
2019-05-02T22:28:12.630Z,12.07
2019-05-02T22:30:40.401Z,12.63
2019-05-02T22:33:07.966Z,12.83
2019-05-02T22:35:35.604Z,13.87
2019-05-02T22:38:14.268Z,13.73
2019-05-02T22:40:43.766Z,13.93
2019-05-02T22:43:13.013Z,15.63
2019-05-02T22:45:41.780Z,14.03
2019-05-02T22:48:09.551Z,16.20
2019-05-02T22:50:37.605Z,16.27
2019-05-02T22:53:05.185Z,14.97
2019-05-02T22:55:32.836Z,13.70
2019-05-02T22:58:02.255Z,17.03
2019-05-02T23:00:29.740Z,15.30
2019-05-02T23:02:57.276Z,15.33
2019-05-02T23:05:24.819Z,15.33
2019-05-02T23:07:52.774Z,16.27
2019-05-02T23:10:22.077Z,18.63
2019-05-02T23:12:51.668Z,15.27
2019-05-02T23:15:19.031Z,15.03
2019-05-02T23:17:46.657Z,13.53
2019-05-02T23:20:14.288Z,12.83
2019-05-02T23:22:41.907Z,12.70
2019-05-02T23:25:28.882Z,10.33
2019-05-02T23:28:05.287Z,10.53
2019-05-02T23:30:32.819Z,14.90
2019-05-02T23:33:02.188Z,14.63
2019-05-02T23:35:29.718Z,15.40
2019-05-02T23:37:57.303Z,12.83
2019-05-02T23:40:24.920Z,12.13
2019-05-02T23:42:52.589Z,10.73
2019-05-02T23:45:20.203Z,11.57
2019-05-02T23:47:57.589Z,12.80
2019-05-02T23:50:25.140Z,12.00
2019-05-02T23:52:52.823Z,13.80
2019-05-02T23:55:20.393Z,10.47
2019-05-02T23:57:55.307Z,12.60
